• Join FlightAware (Why Join?)
  • Login
  • US Flag 
01:18PM EST


 

Airport Tracker/Info


-or-


 

Live Flight TrackerFlight Track Log ✈ AAL1459 ✈ 01-Jul-2013 ✈ KORD - KRNO

Flight Track Log - Related Links

Times and Time Zones

All times are in EDT time to prevent confusion due to time zone crossing. See the AAL1459 flight status page for this flight to view local times or setup timezone preferences in your user account.

Time Position Orientation Groundspeed Altitude Reporting Facility
EDT Latitude Longitude Course Direction KTS MPH feet Rate Location/Type
07:44PM 42.0333 -87.9833 270° West 203 234 2,900  Level Chicago TRACON
07:45PM 42.1000 -88.0333 331° Northwest 269 310 5,100 2,460 Climbing Chicago TRACON
07:46PM 41.9667 -88.3803 270° West  Level FlightAware Approximate
07:46PM 42.1344 -88.0692 322° Northwest 264 304 7,100  Level Chicago Center
07:47PM 41.9667 -88.5404 270° West  Level FlightAware Approximate
07:47PM 42.1419 -88.1786 275° West 307 353 10,000  Level Chicago Center
07:48PM 41.9667 -88.7005 270° West  Level FlightAware Approximate
07:48PM 42.1339 -88.2933 265° West 312 359 12,500  Level Chicago Center
07:49PM 41.9668 -88.8607 270° West  Level FlightAware Approximate
07:49PM 42.1308 -88.4131 268° West 320 368 15,500  Level Chicago Center
07:50PM 41.9669 -89.0209 270° West  Level FlightAware Approximate
07:50PM 42.2039 -88.5158 314° West 323 372 18,400  Level Chicago Center
07:51PM 42.2097 -88.6428 274° West 345 397 20,800 1,320 Climbing Chicago Center
07:52PM 42.2042 -88.7806 267° West 360 414 21,200 1,260 Climbing Chicago Center
07:53PM 42.1967 -88.9356 266° West 388 447 23,500 2,100 Climbing Chicago Center
07:54PM 42.1567 -89.0736 249° West 413 475 25,600 2,220 Climbing Chicago Center
07:55PM 42.0992 -89.2286 243° Southwest 411 473 28,100 1,980 Climbing Chicago Center
07:56PM 42.1061 -89.3756 274° West 391 450 29,700 900 Climbing Chicago Center
07:57PM 42.1150 -89.5364 274° West 426 490 30,000 780 Climbing Chicago Center
07:58PM 42.1267 -89.7075 275° West 449 517 31,400 1,440 Climbing Chicago Center
07:59PM 42.1381 -89.8753 275° West 450 518 33,000 1,740 Climbing Chicago Center
08:00PM 42.1519 -90.0361 277° West 437 503 35,000 1,560 Climbing Chicago Center
08:01PM 42.1675 -90.1908 278° West 425 489 36,300 960 Climbing Chicago Center
08:02PM 42.1875 -90.3769 278° West 422 486 37,100 660 Climbing Chicago Center
08:03PM 42.2094 -90.5350 281° West 431 496 37,700 420 Climbing Chicago Center
08:04PM 42.2292 -90.6950 280° West 435 501 38,000 120 Climbing Chicago Center
08:05PM 42.2489 -90.8536 280° West 433 498 38,000  Level Chicago Center
08:06PM 42.2658 -91.0136 278° West 433 498 38,000  Level Chicago Center
08:07PM 42.2889 -91.2050 279° West 434 499 38,000  Level Chicago Center
08:08PM 42.3081 -91.3631 279° West 429 494 38,000  Level Chicago Center
08:09PM 42.3261 -91.5225 279° West 431 496 38,000  Level Chicago Center
08:11PM 42.3450 -91.6844 279° West 434 499 38,000  Level Chicago Center
08:12PM 42.3633 -91.8483 279° West 440 506 38,000  Level Chicago Center
08:13PM 42.3817 -92.0122 279° West 442 509 38,000  Level Chicago Center
08:14PM 42.4003 -92.1750 279° West 441 507 38,000  Level Chicago Center
08:15PM 42.4214 -92.3714 278° West 443 510 38,000  Level Chicago Center
08:16PM 42.4375 -92.5322 278° West 437 503 38,000  Level Chicago Center
08:17PM 42.4550 -92.6942 278° West 437 503 38,000  Level Chicago Center
08:18PM 42.4719 -92.8564 278° West 438 504 38,000  Level Chicago Center
08:19PM 42.4878 -93.0225 277° West 445 512 38,000  Level Chicago Center
08:20PM 42.5094 -93.2192 279° West 444 511 38,000  Level Chicago Center
08:21PM 42.5244 -93.3858 277° West 449 517 38,000  Level Chicago Center
08:22PM 42.5467 -93.5850 279° West 447 514 38,000  Level Minneapolis Center
08:23PM 42.5611 -93.7511 277° West 449 517 38,000  Level Minneapolis Center
08:24PM 42.5778 -93.9172 278° West 449 517 38,000  Level Minneapolis Center
08:25PM 42.5933 -94.0844 277° West 451 519 38,000  Level Minneapolis Center
08:26PM 42.6083 -94.2511 277° West 451 519 38,000  Level Minneapolis Center
08:27PM 42.6100 -94.4553 271° West 455 524 38,000  Level Minneapolis Center
08:28PM 42.6072 -94.6133 269° West 454 522 38,000  Level Minneapolis Center
08:29PM 42.6042 -94.7836 269° West 453 521 38,000  Level Minneapolis Center
08:30PM 42.6022 -94.9567 269° West 457 526 38,000  Level Minneapolis Center
08:31PM 42.5967 -95.1594 268° West 452 520 38,000  Level Minneapolis Center
08:32PM 42.5939 -95.3286 269° West 451 519 38,000  Level Minneapolis Center
08:33PM 42.5897 -95.4989 268° West 452 520 38,000  Level Minneapolis Center
08:34PM 42.5856 -95.6672 268° West 450 518 38,000  Level Minneapolis Center
08:35PM 42.5819 -95.8331 268° West 446 513 38,000  Level Minneapolis Center
08:36PM 42.5767 -95.9986 268° West 443 510 38,000  Level Minneapolis Center
08:37PM 42.5711 -96.1989 268° West 444 511 38,000  Level Minneapolis Center
08:38PM 42.5661 -96.3644 268° West 442 509 38,000  Level Minneapolis Center
08:40PM 42.5603 -96.5286 267° West 441 507 38,000  Level Minneapolis Center
08:41PM 42.5556 -96.6933 268° West 440 506 38,000  Level Minneapolis Center
08:42PM 42.5500 -96.8603 267° West 443 510 38,000  Level Minneapolis Center
08:43PM 42.5436 -97.0253 267° West 441 507 38,000  Level Minneapolis Center
08:44PM 42.5364 -97.2250 267° West 442 509 38,000  Level Minneapolis Center
08:45PM 42.5294 -97.3908 267° West 443 510 38,000  Level Minneapolis Center
08:46PM 42.5225 -97.5581 267° West 444 511 38,000  Level Minneapolis Center
08:47PM 42.5153 -97.7253 267° West 446 513 38,000  Level Minneapolis Center
08:48PM 42.5081 -97.9064 267° West 447 514 38,000  Level Minneapolis Center
08:49PM 42.5000 -98.0750 266° West 450 518 38,000  Level Minneapolis Center
08:50PM 42.4925 -98.2439 267° West 449 517 38,000  Level Minneapolis Center
08:51PM 42.4842 -98.4131 266° West 451 519 38,000  Level Minneapolis Center
08:52PM 42.4750 -98.6136 277° West 448 516 38,000  Level Minneapolis Center
08:53PM 42.4622 -98.7806 264° West 448 516 38,000  Level Minneapolis Center
08:54PM 42.4453 -98.9478 262° West 450 518 38,000  Level Minneapolis Center
08:55PM 42.4283 -99.1153 262° West 450 518 38,000  Level Minneapolis Center
08:56PM 42.4108 -99.2819 262° West 450 518 38,000  Level Minneapolis Center
08:57PM 42.3958 -99.4147 261° West 450 518 38,000  Level Denver Center
08:58PM 42.3786 -99.5797 262° West 447 514 38,000  Level Denver Center
08:59PM 42.3619 -99.7431 262° West 447 514 38,000  Level Denver Center
09:00PM 42.3414 -99.9267 261° West 445 512 38,000  Level Denver Center
09:01PM 42.3244 -100.0836 262° West 443 510 38,000  Level Denver Center
09:02PM 42.3069 -100.2417 262° West 446 513 38,000  Level Denver Center
09:03PM 42.2853 -100.4261 261° West 446 513 38,000  Level Denver Center
09:04PM 42.2675 -100.5831 261° West 443 510 38,000  Level Denver Center
09:05PM 42.2467 -100.7667 261° West 445 512 38,000  Level Denver Center
09:06PM 42.2222 -100.9719 261° West 438 504 38,000  Level Denver Center
09:07PM 42.2033 -101.1281 261° West 441 507 38,000  Level Denver Center
09:08PM 42.1847 -101.2839 261° West 440 506 38,000  Level Denver Center
09:09PM 42.1625 -101.4672 261° West 443 510 38,000  Level Denver Center
09:10PM 42.1428 -101.6247 260° West 446 513 38,000  Level Denver Center
09:11PM 42.1197 -101.8056 260° West 442 509 38,000  Level Denver Center
09:12PM 42.1003 -101.9614 261° West 442 509 38,000  Level Denver Center
09:13PM 42.0772 -102.1417 260° West 441 507 38,000  Level Denver Center
09:14PM 42.0553 -102.3033 260° West 443 510 38,000  Level Denver Center
09:15PM 42.0350 -102.4594 260° West 443 510 38,000  Level Denver Center
09:16PM 42.0150 -102.6419 262° West 440 506 38,000  Level Denver Center
09:17PM 42.0147 -102.7956 270° West 429 494 38,000  Level Denver Center
09:19PM 42.0125 -102.9753 269° West 430 495 38,000  Level Denver Center
09:20PM 42.0103 -103.1294 269° West 430 495 38,000  Level Denver Center
09:21PM 42.0086 -103.2808 269° West 425 489 38,000  Level Denver Center
09:22PM 42.0050 -103.4597 269° West 427 491 38,000  Level Denver Center
09:23PM 42.0028 -103.6128 269° West 427 491 38,000  Level Denver Center
09:24PM 41.9992 -103.7911 268° West 428 493 38,000  Level Denver Center
09:25PM 41.9956 -103.9442 268° West 428 493 38,000  Level Denver Center
09:26PM 41.9925 -104.0969 269° West 426 490 38,000  Level Denver Center
09:27PM 41.9892 -104.2511 268° West 430 495 38,000  Level Denver Center
09:28PM 41.9850 -104.4294 268° West 425 489 38,000  Level Denver Center
09:29PM 41.9803 -104.6061 268° West 422 486 38,000  Level Denver Center
09:30PM 41.9764 -104.7575 268° West 421 484 38,000  Level Denver Center
09:31PM 41.9725 -104.9097 268° West 423 487 38,000  Level Denver Center
09:32PM 41.9667 -105.0881 268° West 426 490 38,000  Level Denver Center
09:33PM 41.9625 -105.2411 268° West 427 491 38,000  Level Denver Center
09:34PM 41.9569 -105.4208 268° West 430 495 38,000  Level Denver Center
09:35PM 41.9508 -105.5722 267° West 425 489 38,000  Level Denver Center
09:36PM 41.9439 -105.7533 267° West 433 498 38,000  Level Denver Center
09:37PM 41.9397 -105.9078 268° West 433 498 38,000  Level Denver Center
09:38PM 41.9317 -106.0600 266° West 428 493 38,000  Level Denver Center
09:39PM 41.9242 -106.2639 267° West 427 491 38,000  Level Denver Center
09:40PM 41.9189 -106.4444 268° West 433 498 38,000  Level Denver Center
09:41PM 41.9125 -106.5886 267° West 429 494 38,000  Level Denver Center
09:42PM 41.9028 -106.7642 266° West 423 487 38,000  Level Denver Center
09:43PM 41.8969 -106.9172 267° West 428 493 38,000  Level Denver Center
09:44PM 41.8892 -107.0936 267° West 425 489 38,000  Level Denver Center
09:45PM 41.8811 -107.2447 266° West 425 489 38,000  Level Denver Center
09:47PM 41.8731 -107.4203 267° West 423 487 38,000  Level Denver Center
09:48PM 41.8647 -107.5983 266° West 426 490 38,000  Level Salt Lake Center
09:49PM 41.8547 -107.7472 265° West 424 488 38,000  Level Denver Center
09:50PM 41.8481 -107.8997 267° West 427 491 38,000  Level Denver Center
09:51PM 41.8378 -108.0756 266° West 424 488 38,000  Level Denver Center
09:52PM 41.8294 -108.2236 266° West 420 483 38,000  Level Denver Center
09:53PM 41.8208 -108.3742 266° West 423 487 38,000  Level Denver Center
09:54PM 41.8100 -108.5514 265° West 427 491 38,000  Level Denver Center
09:55PM 41.7994 -108.7303 266° West 428 493 38,000  Level Salt Lake Center
09:56PM 41.7900 -108.8828 265° West 432 497 38,000  Level Salt Lake Center
09:57PM 41.7786 -109.0603 265° West 432 497 38,000  Level Salt Lake Center
09:58PM 41.7686 -109.2150 265° West 437 503 38,000  Level Salt Lake Center
09:59PM 41.7558 -109.3933 265° West 436 502 38,000 600 Level Salt Lake Center
10:00PM 41.7442 -109.5453 264° West 433 498 39,300 900 Climbing Salt Lake Center
10:01PM 41.7322 -109.7186 265° West 423 487 39,900 300 Climbing Salt Lake Center
10:02PM 41.7217 -109.8703 265° West 428 493 40,000  Climbing Salt Lake Center
10:03PM 41.7078 -110.0489 264° West 433 498 40,000  Level Salt Lake Center
10:04PM 41.6961 -110.1997 264° West 429 494 40,000  Level Salt Lake Center
10:05PM 41.7122 -110.3478 278° West 421 484 40,000  Level Salt Lake Center
10:06PM 41.7489 -110.5158 286° West 422 486 40,000  Level Salt Lake Center
10:07PM 41.7544 -110.6669 273° West 433 498 40,000  Level Salt Lake Center
10:08PM 41.7344 -110.8456 262° West 435 501 40,000  Level Salt Lake Center
10:09PM 41.7183 -110.9972 262° West 437 503 40,000  Level Salt Lake Center
10:10PM 41.7003 -111.1553 261° West 433 498 40,000  Level Salt Lake Center
10:11PM 41.6817 -111.3119 261° West 430 495 40,000  Level Salt Lake Center
10:12PM 41.6631 -111.4697 261° West 431 496 40,000  Level Salt Lake Center
10:13PM 41.6417 -111.6603 262° West 436 502 40,000  Level Salt Lake Center
10:14PM 41.6228 -111.8192 261° West 436 502 40,000  Level Salt Lake Center
10:15PM 41.6036 -111.9775 261° West 436 502 40,000  Level Salt Lake Center
10:16PM 41.5844 -112.1372 261° West 440 506 40,000  Level Salt Lake Center
10:17PM 41.5647 -112.2972 261° West 440 506 40,000  Level Salt Lake Center
10:18PM 41.5447 -112.4589 261° West 443 510 40,000  Level Salt Lake Center
10:19PM 41.5200 -112.6522 260° West 443 510 40,000  Level Salt Lake Center
10:20PM 41.5000 -112.8150 261° West 446 513 40,000  Level Salt Lake Center
10:21PM 41.4781 -112.9769 260° West 446 513 40,000  Level Salt Lake Center
10:23PM 41.4575 -113.1389 260° West 445 512 40,000  Level Salt Lake Center
10:24PM 41.4353 -113.3006 260° West 444 511 40,000  Level Salt Lake Center
10:25PM 41.4136 -113.4633 260° West 447 514 40,000  Level Salt Lake Center
10:26PM 41.3911 -113.6267 260° West 448 516 40,000  Level Salt Lake Center
10:27PM 41.3639 -113.8231 260° West 450 518 40,000  Level Salt Lake Center
10:28PM 41.3294 -113.9842 254° West 453 521 40,000  Level Salt Lake Center
10:29PM 41.2878 -114.1428 251° West 454 522 40,000  Level Salt Lake Center
10:30PM 41.2486 -114.3019 252° West 455 524 40,000  Level Salt Lake Center
10:31PM 41.2111 -114.4617 253° West 455 524 40,000  Level Salt Lake Center
10:32PM 41.1711 -114.6217 252° West 457 526 40,000  Level Salt Lake Center
10:33PM 41.1311 -114.7794 251° West 455 524 40,000  Level Salt Lake Center
10:34PM 41.0856 -114.9672 252° West 454 522 40,000  Level Salt Lake Center
10:35PM 41.0461 -115.1178 251° West 453 521 40,000  Level Salt Lake Center
10:36PM 41.0064 -115.2678 251° West 452 520 40,000  Level Salt Lake Center
10:37PM 40.9611 -115.4444 251° West 454 522 40,000  Level Salt Lake Center
10:38PM 40.9214 -115.5944 251° West 453 521 40,000  Level Salt Lake Center
10:39PM 40.8778 -115.7694 252° West 450 518 40,000  Level Salt Lake Center
10:40PM 40.8389 -115.9200 251° West 451 519 40,000  Level Salt Lake Center
10:41PM 40.7919 -116.0947 251° West 453 521 40,000  Level Salt Lake Center
10:42PM 40.7522 -116.2436 251° West 450 518 40,000  Level Salt Lake Center
10:43PM 40.7133 -116.3911 251° West 447 514 40,000  Level Salt Lake Center
10:44PM 40.6672 -116.5606 250° West 444 511 40,000  Level Salt Lake Center
10:45PM 40.6281 -116.7069 251° West 444 511 40,000  Level Salt Lake Center
10:46PM 40.5828 -116.8783 251° West 449 517 40,000  Level Salt Lake Center
10:47PM 40.5439 -117.0239 251° West 448 516 40,000  Level Salt Lake Center
10:48PM 40.5000 -117.1931 251° West 444 511 40,000  Level Salt Lake Center
10:49PM 40.4617 -117.3364 251° West 438 504 40,000  Level Salt Lake Center
10:50PM 40.4161 -117.5028 250° West 435 501 40,000  Level Salt Lake Center
10:51PM 40.3792 -117.6453 251° West 433 498 40,000  Level Salt Lake Center
10:52PM 40.3533 -117.7431 251° West 443 510 40,000 -120 Level Oakland Center
10:53PM 40.2786 -117.8931 237° Southwest 438 504 39,800 -1,380 Descending Oakland Center
10:54PM 40.2039 -118.0192 232° Southwest 447 514 37,200 -2,940 Descending Oakland Center
10:55PM 40.1275 -118.1564 234° Southwest 468 539 33,900 -3,240 Descending Oakland Center
10:56PM 40.0497 -118.2944 234° Southwest 472 543 30,700 -3,000 Descending Oakland Center
10:57PM 39.9750 -118.4247 233° Southwest 452 520 27,900 -2,700 Descending Oakland Center
10:58PM 39.9036 -118.5461 233° Southwest 427 491 25,300 -2,280 Descending Oakland Center
10:59PM 39.8339 -118.6650 233° Southwest 415 478 23,300 -2,100 Descending Oakland Center
11:00PM 39.7536 -118.8047 233° Southwest 406 467 21,000 -1,740 Descending Oakland Center
11:01PM 39.6864 -118.9200 233° Southwest 403 464 19,800 -1,740 Descending Oakland Center
11:02PM 39.6194 -119.0339 233° Southwest 403 464 17,500 -2,040 Descending Oakland Center
11:03PM 39.5542 -119.1444 233° Southwest 393 452 15,700 -1,980 Descending Oakland Center
11:04PM 39.4919 -119.2506 233° Southwest 375 432 13,500 -1,320 Descending Oakland Center
11:05PM 39.4314 -119.3542 233° Southwest 366 421 13,000 -660 Descending Oakland Center
11:06PM 39.3850 -119.4581 240° Southwest 341 392 12,200 -900 Descending Oakland Center
11:07PM 39.3483 -119.5558 244° Southwest 320 368 11,200 -1,140 Descending Oakland Center
11:08PM 39.3064 -119.6625 243° Southwest 292 336 9,900 -1,320 Descending Oakland Center